createdAt,value
2022-08-20T00:01:16.272Z,21.10
2022-08-20T00:03:49.988Z,21.00
2022-08-20T00:06:23.704Z,21.00
2022-08-20T00:08:51.343Z,21.00
2022-08-20T00:11:25.158Z,21.20
2022-08-20T00:13:57.857Z,21.30
2022-08-20T00:16:29.584Z,21.30
2022-08-20T00:18:56.416Z,21.30
2022-08-20T00:21:24.877Z,21.30
2022-08-20T00:23:55.118Z,21.40
2022-08-20T00:26:24.176Z,21.40
2022-08-20T00:28:53.249Z,21.40
2022-08-20T00:31:23.855Z,21.50
2022-08-20T00:33:51.398Z,21.40
2022-08-20T00:36:19.085Z,21.20
2022-08-20T00:38:47.151Z,21.10
2022-08-20T00:41:24.401Z,21.00
2022-08-20T00:44:14.128Z,21.00
2022-08-20T00:46:43.411Z,20.90
2022-08-20T00:49:37.336Z,20.80
2022-08-20T00:52:09.443Z,20.70
2022-08-20T00:54:55.119Z,20.50
2022-08-20T00:58:00.866Z,20.50
2022-08-20T01:00:40.315Z,20.50
2022-08-20T01:03:11.424Z,20.50
2022-08-20T01:05:46.951Z,20.40
2022-08-20T01:08:18.726Z,20.50
2022-08-20T01:10:49.884Z,20.60
2022-08-20T01:13:23.571Z,20.70
2022-08-20T01:15:56.109Z,20.80
2022-08-20T01:18:27.965Z,20.80
2022-08-20T01:21:04.066Z,20.90
2022-08-20T01:23:56.626Z,20.80
2022-08-20T01:26:30.217Z,20.60
2022-08-20T01:29:14.050Z,20.60
2022-08-20T01:31:41.877Z,20.40
2022-08-20T01:34:16.547Z,20.30
2022-08-20T01:36:53.258Z,20.20
2022-08-20T01:39:40.411Z,20.10
2022-08-20T01:42:14.625Z,19.90
2022-08-20T01:44:45.045Z,20.00
2022-08-20T01:47:24.904Z,20.20
2022-08-20T01:50:00.000Z,20.20
2022-08-20T01:52:55.057Z,20.00
2022-08-20T01:55:26.595Z,20.10
2022-08-20T01:57:54.812Z,20.10
2022-08-20T02:00:23.676Z,20.10
2022-08-20T02:02:50.809Z,20.00
2022-08-20T02:05:19.073Z,20.00
2022-08-20T02:07:46.117Z,20.00
2022-08-20T02:10:16.652Z,20.00
2022-08-20T02:12:44.276Z,20.00
2022-08-20T02:15:12.601Z,19.90
2022-08-20T02:17:41.733Z,19.90
2022-08-20T02:20:20.285Z,20.00
2022-08-20T02:22:55.110Z,20.00
2022-08-20T02:25:26.656Z,19.90
2022-08-20T02:27:55.906Z,19.80
2022-08-20T02:30:33.273Z,19.90
2022-08-20T02:33:05.064Z,19.80
2022-08-20T02:35:32.660Z,19.70
2022-08-20T02:38:01.766Z,19.80
2022-08-20T02:40:30.636Z,19.80
2022-08-20T02:43:00.297Z,19.70
2022-08-20T02:45:30.560Z,19.60
2022-08-20T02:47:58.943Z,19.60
2022-08-20T02:50:27.919Z,19.60
2022-08-20T02:52:54.994Z,19.50
2022-08-20T02:55:42.281Z,19.60
2022-08-20T02:58:16.237Z,19.50
2022-08-20T03:00:44.115Z,19.50
2022-08-20T03:03:12.888Z,19.50
2022-08-20T03:05:44.172Z,19.50
2022-08-20T03:08:15.915Z,19.50
2022-08-20T03:10:48.652Z,19.50
2022-08-20T03:13:25.089Z,19.60
2022-08-20T03:15:59.771Z,19.60
2022-08-20T03:18:38.409Z,19.50
2022-08-20T03:21:09.867Z,19.50
2022-08-20T03:23:40.335Z,19.50
2022-08-20T03:26:13.761Z,19.50
2022-08-20T03:28:42.580Z,19.40
2022-08-20T03:31:10.766Z,19.50
2022-08-20T03:33:39.601Z,19.40
2022-08-20T03:36:28.354Z,19.60
2022-08-20T03:39:01.059Z,19.70
2022-08-20T03:41:28.901Z,19.70
2022-08-20T03:43:55.842Z,19.80
2022-08-20T03:46:23.517Z,19.80
2022-08-20T03:48:56.373Z,20.00
2022-08-20T03:51:29.637Z,19.90
2022-08-20T03:53:56.972Z,19.90
2022-08-20T03:56:23.819Z,19.80
2022-08-20T03:58:50.661Z,19.80
2022-08-20T04:01:44.882Z,19.80
2022-08-20T04:04:04.934Z,19.80
2022-08-20T04:06:31.845Z,19.80
2022-08-20T04:08:58.693Z,19.80
2022-08-20T04:11:25.434Z,19.70
2022-08-20T04:13:52.584Z,19.80
2022-08-20T04:16:19.575Z,19.80
2022-08-20T04:19:01.384Z,19.70
2022-08-20T04:21:33.910Z,19.80
2022-08-20T04:24:02.958Z,19.70
2022-08-20T04:26:31.382Z,19.70
2022-08-20T04:28:58.678Z,19.60
2022-08-20T04:31:33.497Z,19.60
2022-08-20T04:34:07.928Z,19.40
2022-08-20T04:36:40.404Z,19.40
2022-08-20T04:39:07.235Z,19.40
2022-08-20T04:41:33.994Z,19.50
2022-08-20T04:44:01.169Z,19.50
2022-08-20T04:46:30.559Z,19.60
2022-08-20T04:48:57.802Z,19.50
2022-08-20T04:51:26.860Z,19.50
2022-08-20T04:53:56.593Z,19.50
2022-08-20T04:56:28.984Z,19.50
2022-08-20T04:58:59.250Z,19.50
2022-08-20T05:01:28.243Z,19.60
2022-08-20T05:03:57.776Z,19.50
2022-08-20T05:06:30.285Z,19.60
2022-08-20T05:09:01.140Z,19.60
2022-08-20T05:11:35.430Z,19.60
2022-08-20T05:14:05.870Z,19.60
2022-08-20T05:16:37.868Z,19.60
2022-08-20T05:19:08.424Z,19.60
2022-08-20T05:21:35.315Z,19.60
2022-08-20T05:24:02.931Z,19.50
2022-08-20T05:26:30.047Z,19.50
2022-08-20T05:28:59.433Z,19.40
2022-08-20T05:31:32.261Z,19.40
2022-08-20T05:34:10.845Z,19.50
2022-08-20T05:36:49.552Z,19.40
2022-08-20T05:39:23.157Z,19.40
2022-08-20T05:41:51.189Z,19.40
2022-08-20T05:44:19.395Z,19.40
2022-08-20T05:46:48.179Z,19.50
2022-08-20T05:49:21.684Z,19.40
2022-08-20T05:51:53.410Z,19.40
2022-08-20T05:54:23.861Z,19.20
2022-08-20T05:56:51.061Z,19.20
2022-08-20T05:59:22.218Z,19.10
2022-08-20T06:01:51.254Z,19.10
2022-08-20T06:04:38.646Z,19.10
2022-08-20T06:07:12.148Z,19.00
2022-08-20T06:09:41.337Z,18.90
2022-08-20T06:12:10.431Z,19.00
2022-08-20T06:14:39.308Z,19.00
2022-08-20T06:17:16.759Z,19.00
2022-08-20T06:19:46.923Z,19.00
2022-08-20T06:22:20.118Z,19.00
2022-08-20T06:25:03.091Z,19.00
2022-08-20T06:27:43.893Z,18.90
2022-08-20T06:30:15.939Z,18.80
2022-08-20T06:32:55.035Z,18.90
2022-08-20T06:35:21.894Z,18.80
2022-08-20T06:37:52.945Z,18.80
2022-08-20T06:40:24.809Z,18.70
2022-08-20T06:42:52.717Z,18.70
2022-08-20T06:45:27.944Z,18.70
2022-08-20T06:48:15.371Z,18.70
2022-08-20T06:50:47.891Z,18.60
2022-08-20T06:53:20.542Z,18.60
2022-08-20T06:55:57.945Z,18.60
2022-08-20T06:58:36.368Z,18.60
2022-08-20T07:01:10.606Z,18.50
2022-08-20T07:03:42.307Z,18.60
2022-08-20T07:06:25.291Z,18.60
2022-08-20T07:08:55.677Z,18.70
2022-08-20T07:11:27.801Z,18.70
2022-08-20T07:13:58.649Z,18.70
2022-08-20T07:16:26.011Z,18.70
2022-08-20T07:18:52.861Z,18.70
2022-08-20T07:21:19.609Z,18.70
2022-08-20T07:23:49.376Z,18.80
2022-08-20T07:26:17.647Z,18.90
2022-08-20T07:28:44.767Z,18.80
2022-08-20T07:31:31.458Z,18.90
2022-08-20T07:34:02.540Z,18.90
2022-08-20T07:36:30.404Z,19.00
2022-08-20T07:38:59.334Z,19.00
2022-08-20T07:41:33.524Z,19.00
2022-08-20T07:44:00.284Z,19.00
2022-08-20T07:46:31.270Z,19.10
2022-08-20T07:48:58.719Z,19.10
2022-08-20T07:51:25.598Z,19.20
2022-08-20T07:53:52.691Z,19.10
2022-08-20T07:56:24.422Z,19.20
2022-08-20T07:58:55.516Z,19.30
2022-08-20T08:01:30.384Z,19.80
2022-08-20T08:03:59.458Z,19.90
2022-08-20T08:06:31.364Z,19.90
2022-08-20T08:09:10.876Z,19.80
2022-08-20T08:11:52.488Z,19.90
2022-08-20T08:14:26.848Z,19.80
2022-08-20T08:16:58.131Z,19.70
2022-08-20T08:19:38.768Z,19.90
2022-08-20T08:22:12.543Z,20.00
2022-08-20T08:24:41.949Z,20.20
2022-08-20T08:27:23.628Z,20.30
2022-08-20T08:29:50.617Z,20.50
2022-08-20T08:32:17.576Z,20.70
2022-08-20T08:34:48.135Z,21.00
2022-08-20T08:37:15.033Z,21.40
2022-08-20T08:39:42.310Z,21.50
2022-08-20T08:42:43.260Z,21.70
2022-08-20T08:45:13.066Z,22.00
2022-08-20T08:47:41.225Z,22.10
2022-08-20T08:50:50.136Z,22.20
2022-08-20T08:53:24.500Z,22.50
2022-08-20T08:55:51.274Z,22.80
2022-08-20T08:58:18.119Z,22.50
2022-08-20T09:00:56.507Z,22.60
2022-08-20T09:03:33.141Z,22.80
2022-08-20T09:06:02.540Z,22.70
2022-08-20T09:09:03.380Z,23.10
2022-08-20T09:11:31.147Z,23.30
2022-08-20T09:13:58.574Z,22.80
2022-08-20T09:16:28.099Z,22.50
2022-08-20T09:19:13.157Z,23.00
2022-08-20T09:21:39.979Z,23.20
2022-08-20T09:24:07.002Z,22.90
2022-08-20T09:26:38.639Z,22.80
2022-08-20T09:29:06.025Z,23.20
2022-08-20T09:31:33.139Z,23.20
2022-08-20T09:33:59.972Z,23.60
2022-08-20T09:36:32.121Z,23.20
2022-08-20T09:39:02.978Z,23.10
2022-08-20T09:41:32.929Z,23.10
2022-08-20T09:44:02.143Z,23.40
2022-08-20T09:46:29.008Z,23.20
2022-08-20T09:48:55.893Z,23.40
2022-08-20T09:51:23.258Z,23.80
2022-08-20T09:53:50.635Z,23.40
2022-08-20T09:56:18.219Z,23.30
2022-08-20T09:58:53.475Z,23.60
2022-08-20T10:01:27.387Z,23.60
2022-08-20T10:03:54.293Z,23.50
2022-08-20T10:06:21.316Z,23.40
2022-08-20T10:08:50.556Z,23.10
2022-08-20T10:11:18.386Z,23.40
2022-08-20T10:13:45.863Z,23.20
2022-08-20T10:16:16.366Z,23.50
2022-08-20T10:18:43.194Z,23.60
2022-08-20T10:21:13.279Z,23.60
2022-08-20T10:23:40.280Z,23.80
2022-08-20T10:26:12.383Z,23.80
2022-08-20T10:28:39.632Z,23.80
2022-08-20T10:31:11.609Z,23.80
2022-08-20T10:33:40.019Z,23.90
2022-08-20T10:36:17.391Z,23.70
2022-08-20T10:38:45.622Z,23.90
2022-08-20T10:41:13.544Z,23.90
2022-08-20T10:43:40.955Z,24.00
2022-08-20T10:46:07.929Z,24.20
2022-08-20T10:48:35.004Z,24.30
2022-08-20T10:51:01.884Z,24.70
2022-08-20T10:53:28.759Z,24.50
2022-08-20T10:55:57.608Z,24.50
2022-08-20T10:58:25.906Z,24.40
2022-08-20T11:01:02.510Z,24.30
2022-08-20T11:03:29.336Z,24.20
2022-08-20T11:05:56.105Z,23.70
2022-08-20T11:08:33.263Z,23.60
2022-08-20T11:11:00.697Z,23.70
2022-08-20T11:13:27.601Z,23.50
2022-08-20T11:15:54.520Z,23.10
2022-08-20T11:18:23.322Z,23.10
2022-08-20T11:20:51.662Z,22.90
2022-08-20T11:23:18.460Z,23.00
2022-08-20T11:25:45.498Z,23.10
2022-08-20T11:28:13.039Z,23.20
2022-08-20T11:30:40.049Z,23.10
2022-08-20T11:33:07.326Z,23.60
2022-08-20T11:35:48.959Z,23.80
2022-08-20T11:38:18.438Z,23.90
2022-08-20T11:40:46.890Z,23.50
2022-08-20T11:43:16.989Z,23.50
2022-08-20T11:45:52.649Z,23.90
2022-08-20T11:48:20.414Z,24.10
2022-08-20T11:50:48.503Z,24.20
2022-08-20T11:53:15.899Z,24.20
2022-08-20T11:55:43.757Z,24.20
2022-08-20T11:58:11.404Z,24.50
2022-08-20T12:00:38.367Z,24.60
2022-08-20T12:03:08.613Z,24.50
2022-08-20T12:05:38.350Z,24.20
2022-08-20T12:08:25.315Z,24.10
2022-08-20T12:10:55.836Z,24.00
2022-08-20T12:13:23.605Z,24.20
2022-08-20T12:15:58.897Z,24.20
2022-08-20T12:18:27.099Z,24.40
2022-08-20T12:20:54.650Z,24.10
2022-08-20T12:23:21.568Z,24.10
2022-08-20T12:25:48.849Z,24.10
2022-08-20T12:28:16.097Z,24.10
2022-08-20T12:30:43.017Z,24.10
2022-08-20T12:33:09.935Z,24.00
2022-08-20T12:35:36.836Z,23.90
2022-08-20T12:38:05.997Z,24.00
2022-08-20T12:40:33.696Z,24.10
2022-08-20T12:43:02.941Z,24.50
2022-08-20T12:45:31.701Z,24.60
2022-08-20T12:48:09.888Z,24.60
2022-08-20T12:50:40.170Z,24.60
2022-08-20T12:53:08.185Z,24.60
2022-08-20T12:55:35.956Z,24.50
2022-08-20T12:58:04.906Z,24.30
2022-08-20T13:00:33.419Z,24.30
2022-08-20T13:03:03.742Z,24.30
2022-08-20T13:05:32.153Z,24.30
2022-08-20T13:07:59.256Z,24.20
2022-08-20T13:10:33.624Z,24.30
2022-08-20T13:13:02.841Z,24.30
2022-08-20T13:15:31.996Z,24.30
2022-08-20T13:18:01.902Z,24.30
2022-08-20T13:20:31.625Z,24.20
2022-08-20T13:23:03.641Z,24.30
2022-08-20T13:25:30.975Z,24.30
2022-08-20T13:28:03.793Z,24.20
2022-08-20T13:30:33.303Z,24.30
2022-08-20T13:33:00.657Z,24.50
2022-08-20T13:35:27.506Z,24.60
2022-08-20T13:37:54.300Z,24.50
2022-08-20T13:40:21.185Z,24.50
2022-08-20T13:42:50.428Z,24.40
2022-08-20T13:45:17.649Z,24.40
2022-08-20T13:47:44.532Z,24.30
2022-08-20T13:50:20.449Z,24.30
2022-08-20T13:52:48.407Z,24.50
2022-08-20T13:55:20.172Z,24.70
2022-08-20T13:57:47.824Z,24.50
2022-08-20T14:00:31.411Z,24.50
2022-08-20T14:03:05.031Z,24.40
2022-08-20T14:05:35.601Z,24.40
2022-08-20T14:08:14.363Z,24.30
2022-08-20T14:10:42.729Z,24.20
2022-08-20T14:13:15.168Z,24.30
2022-08-20T14:15:42.994Z,24.40
2022-08-20T14:18:09.988Z,24.60
2022-08-20T14:20:38.687Z,24.70
2022-08-20T14:23:06.138Z,24.90
2022-08-20T14:25:33.519Z,24.90
2022-08-20T14:28:32.784Z,24.90
2022-08-20T14:30:59.557Z,24.30
2022-08-20T14:33:26.405Z,23.90
2022-08-20T14:35:53.310Z,23.60
2022-08-20T14:38:20.279Z,23.70
2022-08-20T14:40:47.471Z,23.50
2022-08-20T14:43:14.211Z,23.30
2022-08-20T14:45:41.027Z,23.20
2022-08-20T14:48:09.357Z,23.40
2022-08-20T14:50:37.353Z,23.30
2022-08-20T14:53:06.894Z,23.30
2022-08-20T14:55:38.018Z,23.20
2022-08-20T14:58:11.527Z,23.00
2022-08-20T15:00:38.888Z,23.00
2022-08-20T15:03:05.744Z,22.90
2022-08-20T15:05:33.223Z,22.70
2022-08-20T15:08:00.353Z,22.70
2022-08-20T15:10:32.319Z,22.50
2022-08-20T15:12:59.792Z,22.60
2022-08-20T15:15:27.012Z,22.60
2022-08-20T15:18:00.247Z,22.60
2022-08-20T15:20:31.244Z,22.70
2022-08-20T15:22:58.509Z,22.90
2022-08-20T15:25:36.613Z,22.80
2022-08-20T15:28:08.844Z,22.70
2022-08-20T15:30:39.133Z,23.10
2022-08-20T15:33:06.357Z,23.30
2022-08-20T15:35:33.658Z,23.40
2022-08-20T15:38:00.910Z,23.20
2022-08-20T15:40:31.933Z,23.30
2022-08-20T15:43:02.826Z,23.60
2022-08-20T15:45:30.139Z,23.70
2022-08-20T15:48:20.447Z,23.80
2022-08-20T15:51:23.155Z,23.90
2022-08-20T15:54:04.735Z,23.80
2022-08-20T15:56:43.669Z,23.80
2022-08-20T15:59:40.136Z,23.80
2022-08-20T16:02:42.454Z,23.90
2022-08-20T16:05:19.261Z,23.70
2022-08-20T16:08:22.289Z,23.70
2022-08-20T16:11:03.527Z,23.80
2022-08-20T16:13:45.092Z,23.90
2022-08-20T16:16:23.556Z,23.70
2022-08-20T16:18:53.729Z,23.30
2022-08-20T16:21:37.448Z,23.10
2022-08-20T16:24:12.747Z,23.00
2022-08-20T16:27:43.297Z,23.00
2022-08-20T16:30:21.944Z,23.10
2022-08-20T16:33:06.443Z,23.20
2022-08-20T16:35:54.559Z,23.10
2022-08-20T16:38:40.168Z,22.90
2022-08-20T16:41:28.686Z,23.00
2022-08-20T16:44:09.276Z,23.00
2022-08-20T16:46:48.896Z,22.90
2022-08-20T16:49:16.206Z,22.70
2022-08-20T16:51:51.795Z,22.60
2022-08-20T16:54:29.307Z,22.40
2022-08-20T16:57:06.093Z,22.60
2022-08-20T17:00:16.354Z,22.80
2022-08-20T17:02:56.096Z,22.80
2022-08-20T17:05:27.673Z,22.80
2022-08-20T17:08:15.284Z,22.90
2022-08-20T17:11:15.315Z,22.70
2022-08-20T17:13:46.887Z,22.80
2022-08-20T17:16:13.871Z,22.70
2022-08-20T17:19:08.390Z,22.70
2022-08-20T17:21:39.242Z,22.60
2022-08-20T17:24:28.315Z,22.50
2022-08-20T17:27:31.546Z,22.60
2022-08-20T17:30:34.257Z,22.70
2022-08-20T17:33:08.911Z,22.50
2022-08-20T17:35:48.556Z,22.50
2022-08-20T17:38:45.652Z,22.50
2022-08-20T17:41:26.487Z,22.60
2022-08-20T17:44:08.911Z,22.40
2022-08-20T17:46:43.913Z,22.40
2022-08-20T17:49:20.177Z,22.30
2022-08-20T17:51:55.163Z,22.30
2022-08-20T17:54:33.744Z,22.30
2022-08-20T17:57:09.596Z,22.30
2022-08-20T18:00:00.865Z,22.40
2022-08-20T18:02:33.442Z,22.30
2022-08-20T18:05:01.261Z,22.20
2022-08-20T18:08:06.784Z,22.00
2022-08-20T18:11:01.774Z,21.90
2022-08-20T18:14:07.411Z,21.90
2022-08-20T18:17:01.743Z,21.80
2022-08-20T18:20:05.810Z,21.70
2022-08-20T18:22:58.542Z,21.70
2022-08-20T18:25:57.236Z,21.60
2022-08-20T18:28:38.511Z,21.60
2022-08-20T18:31:22.190Z,21.60
2022-08-20T18:34:22.422Z,21.60
2022-08-20T18:37:17.427Z,21.60
2022-08-20T18:39:50.119Z,21.70
2022-08-20T18:42:36.815Z,21.60
2022-08-20T18:45:35.836Z,21.60
2022-08-20T18:48:04.825Z,21.50
2022-08-20T18:50:56.015Z,21.50
2022-08-20T18:53:34.180Z,21.40
2022-08-20T18:56:10.856Z,21.50
2022-08-20T18:59:22.004Z,21.60
2022-08-20T19:01:49.843Z,21.60
2022-08-20T19:04:29.395Z,21.60
2022-08-20T19:07:10.102Z,21.60
2022-08-20T19:10:27.872Z,21.60
2022-08-20T19:13:41.138Z,21.60
2022-08-20T19:16:18.159Z,21.60
2022-08-20T19:19:21.228Z,21.70
2022-08-20T19:21:49.387Z,21.60
2022-08-20T19:24:27.841Z,21.70
2022-08-20T19:27:06.280Z,21.70
2022-08-20T19:29:56.810Z,21.70
2022-08-20T19:32:33.149Z,21.60
2022-08-20T19:35:06.596Z,21.50
2022-08-20T19:37:59.469Z,21.40
2022-08-20T19:40:33.201Z,21.50
2022-08-20T19:43:13.801Z,21.40
2022-08-20T19:46:01.684Z,21.40
2022-08-20T19:48:55.868Z,21.40
2022-08-20T19:51:40.745Z,21.30
2022-08-20T19:54:22.344Z,21.30
2022-08-20T19:56:50.958Z,21.20
2022-08-20T19:59:21.561Z,21.20
2022-08-20T20:02:00.181Z,21.20
2022-08-20T20:04:38.211Z,21.10
2022-08-20T20:07:21.979Z,21.10
2022-08-20T20:09:56.531Z,21.10
2022-08-20T20:12:24.605Z,21.10
2022-08-20T20:14:54.822Z,21.00
2022-08-20T20:17:28.774Z,21.00
2022-08-20T20:20:18.594Z,20.90
2022-08-20T20:22:56.426Z,20.70
2022-08-20T20:25:33.874Z,20.60
2022-08-20T20:28:27.343Z,20.60
2022-08-20T20:31:05.782Z,20.60
2022-08-20T20:33:43.800Z,20.60
2022-08-20T20:36:30.182Z,20.60
2022-08-20T20:39:11.235Z,20.60
2022-08-20T20:41:53.786Z,20.50
2022-08-20T20:44:28.629Z,20.50
2022-08-20T20:47:01.557Z,20.40
2022-08-20T20:49:46.604Z,20.40
2022-08-20T20:52:49.817Z,20.30
2022-08-20T20:55:31.453Z,20.30
2022-08-20T20:57:59.860Z,20.30
2022-08-20T21:00:33.900Z,20.30
2022-08-20T21:03:03.767Z,20.20
2022-08-20T21:05:33.118Z,20.20
2022-08-20T21:08:03.932Z,20.20
2022-08-20T21:10:35.264Z,20.10
2022-08-20T21:13:05.409Z,20.10
2022-08-20T21:15:34.812Z,20.10
2022-08-20T21:18:05.226Z,20.00
2022-08-20T21:20:33.393Z,19.90
2022-08-20T21:23:00.163Z,19.80
2022-08-20T21:25:30.362Z,19.90
2022-08-20T21:27:57.232Z,19.80
2022-08-20T21:30:25.942Z,19.70
2022-08-20T21:32:53.365Z,19.70
2022-08-20T21:35:20.668Z,19.60
2022-08-20T21:37:47.803Z,19.60
2022-08-20T21:40:18.233Z,19.60
2022-08-20T21:42:49.646Z,19.60
2022-08-20T21:45:19.662Z,19.50
2022-08-20T21:47:46.862Z,19.60
2022-08-20T21:50:19.679Z,19.50
2022-08-20T21:52:59.223Z,19.50
2022-08-20T21:55:29.563Z,19.40
2022-08-20T21:57:58.584Z,19.40
2022-08-20T22:00:53.444Z,19.40
2022-08-20T22:03:26.247Z,19.30
2022-08-20T22:05:55.348Z,19.20
2022-08-20T22:08:24.108Z,19.20
2022-08-20T22:10:56.970Z,19.10
2022-08-20T22:13:28.234Z,19.10
2022-08-20T22:15:55.011Z,19.10
2022-08-20T22:18:21.761Z,19.10
2022-08-20T22:20:50.800Z,19.10
2022-08-20T22:23:17.661Z,19.00
2022-08-20T22:25:44.777Z,18.90
2022-08-20T22:28:11.643Z,18.90
2022-08-20T22:30:42.469Z,18.90
2022-08-20T22:33:21.457Z,18.80
2022-08-20T22:35:57.109Z,18.70
2022-08-20T22:38:25.716Z,18.70
2022-08-20T22:40:53.956Z,18.60
2022-08-20T22:43:23.076Z,18.60
2022-08-20T22:45:57.537Z,18.50
2022-08-20T22:48:24.565Z,18.40
2022-08-20T22:50:53.401Z,18.30
2022-08-20T22:53:24.005Z,18.30
2022-08-20T22:55:51.497Z,18.30
2022-08-20T22:58:20.544Z,18.30
2022-08-20T23:00:59.514Z,18.40
2022-08-20T23:03:39.504Z,18.40
2022-08-20T23:06:09.456Z,18.40
2022-08-20T23:08:38.047Z,18.40
2022-08-20T23:11:09.203Z,18.20
2022-08-20T23:13:36.249Z,18.10
2022-08-20T23:16:04.860Z,18.00
2022-08-20T23:18:32.716Z,18.00
2022-08-20T23:21:01.486Z,18.10
2022-08-20T23:23:28.352Z,18.00
2022-08-20T23:25:55.445Z,18.00
2022-08-20T23:28:25.217Z,18.10
2022-08-20T23:30:52.315Z,18.10
2022-08-20T23:33:19.280Z,18.10
2022-08-20T23:35:47.178Z,18.10
2022-08-20T23:38:14.844Z,18.00
2022-08-20T23:40:42.141Z,18.00
2022-08-20T23:43:09.667Z,17.90
2022-08-20T23:45:39.924Z,17.90
2022-08-20T23:48:09.776Z,17.80
2022-08-20T23:50:37.033Z,17.70
2022-08-20T23:53:04.963Z,17.80
2022-08-20T23:55:32.474Z,17.80
2022-08-20T23:57:59.997Z,17.80
